Turner Center, Maine
Current Conditions -  °F | °C
As of 1:55 PM on Thursday 23 Oct 2014 (Local Time) from KLEW Reporting Station
Overcast Overcast  
Wind Chill:   Ceiling: 1100
Heat Index:   Visibility: 10mi
Dew Point:   Wind: 18mph
Humidity: 87%   Direction: 20°NNE
Pressure: 29.78"   Gusts: 29mph
Location:  44.27°N, 70.22°W
Report Text: KLEW 231755Z AUTO 02016G25KT 10SM OVC011 09/07 A2978 RMK AO1 10090 20080 57014
Loading
Personal Weather Stations






























Interactive Weather Map
Tropical Storm Tracking
New forecast layout! Learn more

10-Day Weather Forecast

Advertisements
Track Severe Weather on mobile